createdAt,value
2023-05-05T00:04:37.612Z,94.23
2023-05-05T00:19:59.926Z,22.63
2023-05-05T00:35:21.580Z,196.07
2023-05-05T00:50:42.792Z,196.27
2023-05-05T01:06:15.850Z,70.43
2023-05-05T01:21:38.832Z,155.50
2023-05-05T01:37:04.934Z,101.77
2023-05-05T01:52:26.104Z,160.87
2023-05-05T02:07:47.625Z,18.67
2023-05-05T02:23:09.086Z,4.87
2023-05-05T02:38:30.773Z,3.37
2023-05-05T02:53:52.838Z,4.90
2023-05-05T03:09:15.472Z,7.17
2023-05-05T03:24:36.802Z,5.23
2023-05-05T03:39:58.228Z,5.40
2023-05-05T03:55:19.223Z,5.87
2023-05-05T04:10:40.330Z,5.60
2023-05-05T04:26:01.493Z,4.73
2023-05-05T04:41:22.523Z,4.03
2023-05-05T04:56:43.816Z,4.70
2023-05-05T05:12:06.190Z,4.50
2023-05-05T05:27:27.246Z,5.53
2023-05-05T05:42:48.735Z,6.20
2023-05-05T05:58:09.839Z,8.03
2023-05-05T06:13:31.361Z,7.80
2023-05-05T06:28:52.737Z,6.50
2023-05-05T06:44:13.997Z,5.13
2023-05-05T06:59:35.127Z,4.13
2023-05-05T07:14:56.552Z,3.50
2023-05-05T07:30:19.004Z,3.53
2023-05-05T07:45:40.862Z,3.20
2023-05-05T08:01:02.800Z,2.53
2023-05-05T08:16:24.070Z,2.90
2023-05-05T08:31:45.476Z,2.40
2023-05-05T08:47:07.484Z,2.27
2023-05-05T09:02:30.114Z,2.40
2023-05-05T09:17:51.298Z,2.33
2023-05-05T09:33:12.704Z,1.70
2023-05-05T09:48:34.031Z,2.10
2023-05-05T10:03:55.596Z,3.67
2023-05-05T10:19:17.304Z,2.33
2023-05-05T10:34:51.821Z,3.20
2023-05-05T10:50:17.220Z,2.40
2023-05-05T11:05:40.004Z,2.10
2023-05-05T11:21:01.527Z,2.10
2023-05-05T11:36:38.442Z,2.13
2023-05-05T11:51:59.820Z,2.40
2023-05-05T12:07:22.137Z,2.00
2023-05-05T12:22:45.040Z,1.93
2023-05-05T12:38:06.738Z,2.40
2023-05-05T12:53:27.890Z,2.27
2023-05-05T13:08:49.262Z,2.73
2023-05-05T13:24:21.383Z,2.47
2023-05-05T13:39:49.715Z,2.23
2023-05-05T13:55:11.162Z,2.30
2023-05-05T14:10:32.329Z,2.23
2023-05-05T14:25:54.866Z,1.93
2023-05-05T14:41:16.284Z,2.37
2023-05-05T14:56:37.717Z,2.10
2023-05-05T15:11:59.050Z,2.10
2023-05-05T15:27:20.369Z,1.87
2023-05-05T15:42:41.551Z,2.50
2023-05-05T15:58:02.738Z,2.53
2023-05-05T16:13:23.952Z,2.13
2023-05-05T16:28:45.504Z,2.40
2023-05-05T16:44:07.060Z,3.00
2023-05-05T16:59:30.336Z,2.07
2023-05-05T17:14:52.862Z,2.73
2023-05-05T17:30:14.553Z,3.00
2023-05-05T17:45:36.038Z,2.97
2023-05-05T18:00:57.548Z,3.00
2023-05-05T18:16:18.874Z,3.00
2023-05-05T18:31:40.081Z,2.47
2023-05-05T18:47:02.815Z,3.10
2023-05-05T19:02:23.892Z,3.70
2023-05-05T19:17:45.390Z,3.87
2023-05-05T19:33:06.963Z,4.67
2023-05-05T19:48:28.329Z,3.43
2023-05-05T20:03:49.805Z,3.70
2023-05-05T20:19:11.150Z,3.57
2023-05-05T20:34:32.423Z,4.10
2023-05-05T20:49:53.594Z,3.27
2023-05-05T21:05:15.231Z,3.50
2023-05-05T21:20:36.508Z,2.27
2023-05-05T21:35:57.457Z,2.67
2023-05-05T21:51:18.686Z,2.80
2023-05-05T22:06:39.923Z,2.40
2023-05-05T22:22:01.308Z,2.97
2023-05-05T22:37:22.631Z,1.83
2023-05-05T22:52:43.979Z,2.93
2023-05-05T23:08:05.851Z,2.83
2023-05-05T23:23:27.147Z,2.43
2023-05-05T23:38:48.421Z,1.93
2023-05-05T23:54:09.869Z,3.17
